| time (UTC) | temp F | wind direction | speed MPH | gust MPH | rain 1hr in | rain 24hr in | rain mn in | humidity % | barometer mb |
| 20260904172744 | 63 | 132 | 11.0 | 22.0 | 0.00 | 0.00 | 0.00 | 100 | |
| 20260904172544 | 63 | 144 | 13.0 | 25.0 | 0.00 | 0.00 | 0.00 | 100 | |
| 20260904172344 | 63 | 134 | 12.0 | 25.0 | 0.00 | 0.00 | 0.00 | 100 | |
| 20260904172144 | 63 | 115 | 10.0 | 23.0 | 0.00 | 0.00 | 0.00 | 100 | |
| 20260904171944 | 63 | 108 | 8.0 | 15.0 | 0.00 | 0.00 | 0.00 | 100 | |
| 20260904171744 | 63 | 88 | 8.0 | 15.0 | 0.00 | 0.00 | 0.00 | 100 | |
| 20260904171544 | 63 | 110 | 9.0 | 16.0 | 0.00 | 0.00 | 0.00 | 100 | |
| 20260904171345 | 63 | 111 | 9.0 | 16.0 | 0.00 | 0.00 | 0.00 | 100 | |
| 20260904171145 | 63 | 97 | 9.0 | 16.0 | 0.00 | 0.00 | 0.00 | 100 | |
| 20260904170943 | 63 | 90 | 8.0 | 12.0 | 0.00 | 0.00 | 0.00 | 100 | |
| 20260904170743 | 63 | 90 | 8.0 | 13.0 | 0.00 | 0.00 | 0.00 | 100 | |
| 20260904170543 | 63 | 86 | 9.0 | 12.0 | 0.00 | 0.00 | 0.00 | 100 | |
| 20260904170343 | 63 | 93 | 9.0 | 12.0 | 0.00 | 0.00 | 0.00 | 100 | |
| 20260904170144 | 63 | 106 | 10.0 | 14.0 | 0.00 | 0.00 | 0.00 | 100 | |
| 20260904165943 | 63 | 116 | 9.0 | 13.0 | 0.00 | 0.00 | 0.00 | 100 | |
| 20260904165743 | 63 | 111 | 9.0 | 12.0 | 0.00 | 0.00 | 0.00 | 100 | |
| 20260904165543 | 63 | 117 | 9.0 | 12.0 | 0.00 | 0.00 | 0.00 | 100 | |
| 20260904165343 | 63 | 102 | 9.0 | 14.0 | 0.00 | 0.00 | 0.00 | 100 | |
| 20260904165143 | 63 | 95 | 9.0 | 14.0 | 0.00 | 0.00 | 0.00 | 100 | |
| 20260904164941 | 63 | 132 | 9.0 | 16.0 | 0.00 | 0.00 | 0.00 | 100 | |
| 20260904164741 | 63 | 143 | 10.0 | 17.0 | 0.00 | 0.00 | 0.00 | 100 | |
| 20260904164541 | 63 | 106 | 8.0 | 14.0 | 0.00 | 0.00 | 0.00 | 100 | |
| 20260904164341 | 63 | 92 | 9.0 | 14.0 | 0.00 | 0.00 | 0.00 | 100 | |
| 20260904164141 | 63 | 103 | 9.0 | 11.0 | 0.00 | 0.00 | 0.00 | 100 | |
| 20260904163941 | 63 | 117 | 8.0 | 12.0 | 0.00 | 0.00 | 0.00 | 100 | |
| 20260904163741 | 63 | 128 | 9.0 | 12.0 | 0.00 | 0.00 | 0.00 | 100 | |
| 20260904163541 | 63 | 118 | 8.0 | 11.0 | 0.00 | 0.00 | 0.00 | 100 | |
| 20260904163341 | 64 | 93 | 8.0 | 11.0 | 0.00 | 0.00 | 0.00 | 100 | |
| 20260904163141 | 64 | 154 | 8.0 | 13.0 | 0.00 | 0.00 | 0.00 | 100 | |
| 20260904162939 | 64 | 151 | 8.0 | 13.0 | 0.00 | 0.00 | 0.00 | 100 | |
| 20260904162739 | 64 | 105 | 8.0 | 12.0 | 0.00 | 0.00 | 0.00 | 100 | |
| 20260904162539 | 64 | 104 | 10.0 | 13.0 | 0.00 | 0.00 | 0.00 | 100 | |
| 20260904162332 | 64 | 104 | 8.0 | 11.0 | 0.00 | 0.00 | 0.00 | 100 | |
| 20260904162131 | 64 | 136 | 10.0 | 18.0 | 0.00 | 0.00 | 0.00 | 100 | |
| 20260904161931 | 64 | 141 | 11.0 | 18.0 | 0.00 | 0.00 | 0.00 | 100 | |
| 20260904161731 | 64 | 153 | 9.0 | 14.0 | 0.00 | 0.00 | 0.00 | 100 | |
| 20260904161531 | 64 | 137 | 9.0 | 14.0 | 0.00 | 0.00 | 0.00 | 100 | |
| 20260904161331 | 64 | 142 | 10.0 | 14.0 | 0.00 | 0.00 | 0.00 | 100 | |
| 20260904161133 | 64 | 136 | 10.0 | 18.0 | 0.00 | 0.00 | 0.00 | 100 | |
| 20260904160929 | 64 | 152 | 10.0 | 18.0 | 0.00 | 0.00 | 0.00 | 100 | |
| 20260904160729 | 64 | 146 | 12.0 | 18.0 | 0.00 | 0.00 | 0.00 | 100 | |
| 20260904160530 | 64 | 132 | 11.0 | 18.0 | 0.00 | 0.00 | 0.00 | 100 | |
| 20260904160330 | 64 | 143 | 10.0 | 17.0 | 0.00 | 0.00 | 0.00 | 100 | |
| 20260904160129 | 64 | 183 | 13.0 | 18.0 | 0.00 | 0.00 | 0.00 | 100 | |
| 20260904155929 | 64 | 177 | 12.0 | 19.0 | 0.00 | 0.00 | 0.00 | 100 | |
| 20260904155729 | 64 | 168 | 11.0 | 19.0 | 0.00 | 0.00 | 0.00 | 100 | |
| 20260904155529 | 64 | 145 | 9.0 | 11.0 | 0.00 | 0.00 | 0.00 | 100 | |
| 20260904155329 | 64 | 124 | 9.0 | 14.0 | 0.00 | 0.00 | 0.00 | 100 | |
| 20260904155129 | 65 | 143 | 9.0 | 16.0 | 0.00 | 0.00 | 0.00 | 100 | |
| 20260904154927 | 65 | 130 | 9.0 | 15.0 | 0.00 | 0.00 | 0.00 | 100 | |
| 20260904154727 | 65 | 118 | 8.0 | 13.0 | 0.00 | 0.00 | 0.00 | 100 | |
| 20260904154527 | 65 | 133 | 10.0 | 18.0 | 0.00 | 0.00 | 0.00 | 100 | |
| 20260904154327 | 65 | 158 | 11.0 | 16.0 | 0.00 | 0.00 | 0.00 | 100 | |
| 20260904154127 | 65 | 146 | 11.0 | 16.0 | 0.00 | 0.00 | 0.00 | 100 | |
| 20260904153926 | 65 | 117 | 11.0 | 14.0 | 0.00 | 0.00 | 0.00 | 100 | |
| 20260904153726 | 65 | 146 | 12.0 | 23.0 | 0.00 | 0.00 | 0.00 | 100 | |
| 20260904153526 | 65 | 136 | 11.0 | 18.0 | 0.00 | 0.00 | 0.00 | 100 | |
| 20260904153327 | 65 | 121 | 11.0 | 16.0 | 0.00 | 0.00 | 0.00 | 100 | |
| 20260904153127 | 65 | 127 | 10.0 | 18.0 | 0.00 | 0.00 | 0.00 | 100 | |
| 20260904152925 | 65 | 123 | 8.0 | 11.0 | 0.00 | 0.00 | 0.00 | 100 | |
| 20260904152725 | 65 | 129 | 10.0 | 15.0 | 0.00 | 0.00 | 0.00 | 100 | |
| 20260904152525 | 65 | 133 | 9.0 | 13.0 | 0.00 | 0.00 | 0.00 | 100 | |
| 20260904152325 | 65 | 109 | 8.0 | 10.0 | 0.00 | 0.00 | 0.00 | 100 | |
| 20260904152125 | 65 | 100 | 8.0 | 13.0 | 0.00 | 0.00 | 0.00 | 100 | |
| 20260904151924 | 65 | 129 | 7.0 | 10.0 | 0.00 | 0.00 | 0.00 | 100 | |
| 20260904151724 | 65 | 141 | 9.0 | 15.0 | 0.00 | 0.00 | 0.00 | 100 | |
| 20260904151524 | 65 | 146 | 11.0 | 15.0 | 0.00 | 0.00 | 0.00 | 100 | |
| 20260904151324 | 65 | 136 | 10.0 | 21.0 | 0.00 | 0.00 | 0.00 | 100 | |
| 20260904151124 | 65 | 167 | 10.0 | 21.0 | 0.00 | 0.00 | 0.00 | 100 | |
| 20260904150922 | 65 | 134 | 8.0 | 12.0 | 0.00 | 0.00 | 0.00 | 100 | |
| 20260904150722 | 65 | 135 | 8.0 | 11.0 | 0.00 | 0.00 | 0.00 | 100 | |
| 20260904150522 | 65 | 142 | 8.0 | 13.0 | 0.00 | 0.00 | 0.00 | 100 | |
| 20260904150322 | 65 | 138 | 9.0 | 12.0 | 0.00 | 0.00 | 0.00 | 100 | |
| 20260904150122 | 65 | 130 | 9.0 | 12.0 | 0.00 | 0.00 | 0.00 | 100 | |
| 20260904145922 | 65 | 136 | 10.0 | 17.0 | 0.00 | 0.00 | 0.00 | 100 | |
| 20260904145722 | 65 | 160 | 11.0 | 18.0 | 0.00 | 0.00 | 0.00 | 100 | |
| 20260904145522 | 65 | 137 | 12.0 | 18.0 | 0.00 | 0.00 | 0.00 | 100 | |
| 20260904145122 | 65 | 180 | 12.0 | 17.0 | 0.00 | 0.00 | 0.00 | 100 | |
| 20260904144921 | 64 | 168 | 12.0 | 21.0 | 0.00 | 0.00 | 0.00 | 100 | |
| 20260904144721 | 64 | 113 | 10.0 | 18.0 | 0.00 | 0.00 | 0.00 | 100 | |
| 20260904144521 | 64 | 130 | 9.0 | 15.0 | 0.00 | 0.00 | 0.00 | 100 | |
| 20260904144321 | 64 | 123 | 10.0 | 15.0 | 0.00 | 0.00 | 0.00 | 100 | |
| 20260904144121 | 64 | 132 | 10.0 | 15.0 | 0.00 | 0.00 | 0.00 | 100 | |
| 20260904143921 | 65 | 134 | 10.0 | 16.0 | 0.00 | 0.00 | 0.00 | 100 | |
| 20260904143721 | 65 | 153 | 10.0 | 16.0 | 0.00 | 0.00 | 0.00 | 100 | |
| 20260904143521 | 65 | 136 | 9.0 | 16.0 | 0.00 | 0.00 | 0.00 | 100 | |
| 20260904143321 | 65 | 113 | 9.0 | 14.0 | 0.00 | 0.00 | 0.00 | 100 | |
| 20260904143121 | 65 | 126 | 11.0 | 16.0 | 0.00 | 0.00 | 0.00 | 100 | |
| 20260904142919 | 66 | 125 | 10.0 | 16.0 | 0.00 | 0.00 | 0.00 | 100 | |
| 20260904142719 | 66 | 164 | 12.0 | 20.0 | 0.00 | 0.00 | 0.00 | 100 | |
| 20260904142519 | 66 | 159 | 12.0 | 21.0 | 0.00 | 0.00 | 0.00 | 100 | |
| 20260904142319 | 66 | 138 | 10.0 | 16.0 | 0.00 | 0.00 | 0.00 | 100 | |
| 20260904142119 | 66 | 127 | 10.0 | 17.0 | 0.00 | 0.00 | 0.00 | 100 | |
| 20260904141919 | 66 | 163 | 11.0 | 17.0 | 0.00 | 0.00 | 0.00 | 100 | |
| 20260904141719 | 66 | 146 | 9.0 | 17.0 | 0.00 | 0.00 | 0.00 | 100 | |
| 20260904141519 | 66 | 126 | 11.0 | 21.0 | 0.00 | 0.00 | 0.00 | 100 | |
| 20260904141319 | 66 | 145 | 11.0 | 21.0 | 0.00 | 0.00 | 0.00 | 100 | |
| 20260904141119 | 66 | 128 | 12.0 | 18.0 | 0.00 | 0.00 | 0.00 | 100 | |
| 20260904140917 | 66 | 122 | 11.0 | 17.0 | 0.00 | 0.00 | 0.00 | 100 | |
| 20260904140715 | 66 | 126 | 10.0 | 15.0 | 0.00 | 0.00 | 0.00 | 100 | |
| 20260904140515 | 66 | 189 | 11.0 | 20.0 | 0.00 | 0.00 | 0.00 | 100 | |
| 20260904140315 | 66 | 180 | 10.0 | 20.0 | 0.00 | 0.00 | 0.00 | 100 | |
| 20260904140115 | 66 | 130 | 11.0 | 16.0 | 0.00 | 0.00 | 0.00 | 100 | |
| 20260904135915 | 65 | 134 | 10.0 | 16.0 | 0.00 | 0.00 | 0.00 | 100 | |
| 20260904135715 | 65 | 129 | 9.0 | 14.0 | 0.00 | 0.00 | 0.00 | 100 | |
| 20260904135515 | 65 | 138 | 12.0 | 25.0 | 0.00 | 0.00 | 0.00 | 100 | |
| 20260904135315 | 65 | 144 | 9.0 | 13.0 | 0.00 | 0.00 | 0.00 | 100 | |
| 20260904135115 | 64 | 141 | 9.0 | 16.0 | 0.00 | 0.00 | 0.00 | 100 | |
| 20260904134904 | 64 | 146 | 10.0 | 16.0 | 0.00 | 0.00 | 0.00 | 100 | |
| 20260904134704 | 64 | 144 | 9.0 | 13.0 | 0.00 | 0.00 | 0.00 | 100 | |
| 20260904134504 | 64 | 134 | 8.0 | 13.0 | 0.00 | 0.00 | 0.00 | 100 | |
| 20260904134304 | 64 | 134 | 11.0 | 16.0 | 0.00 | 0.00 | 0.00 | 100 | |
| 20260904134104 | 64 | 170 | 13.0 | 19.0 | 0.00 | 0.00 | 0.00 | 100 | |
| 20260904133904 | 64 | 144 | 13.0 | 19.0 | 0.00 | 0.00 | 0.00 | 100 | |
| 20260904133704 | 64 | 169 | 13.0 | 25.0 | 0.00 | 0.00 | 0.00 | 100 | |
| 20260904133504 | 64 | 131 | 11.0 | 17.0 | 0.00 | 0.00 | 0.00 | 100 | |
| 20260904133305 | 64 | 162 | 12.0 | 17.0 | 0.00 | 0.00 | 0.00 | 100 | |
| 20260904133104 | 63 | 150 | 12.0 | 17.0 | 0.00 | 0.00 | 0.00 | 100 | |
| 20260904132902 | 63 | 153 | 13.0 | 19.0 | 0.00 | 0.00 | 0.00 | 100 | |
| 20260904132702 | 62 | 183 | 13.0 | 18.0 | 0.00 | 0.00 | 0.00 | 100 | |
| 20260904132502 | 62 | 180 | 10.0 | 16.0 | 0.00 | 0.00 | 0.00 | 100 | |
| 20260904132305 | 62 | 110 | 10.0 | 15.0 | 0.00 | 0.00 | 0.00 | 100 | |
| 20260904132101 | 62 | 136 | 11.0 | 15.0 | 0.00 | 0.00 | 0.00 | 100 | |
| 20260904131901 | 62 | 122 | 10.0 | 13.0 | 0.00 | 0.00 | 0.00 | 100 | |
| 20260904131701 | 62 | 122 | 10.0 | 15.0 | 0.00 | 0.00 | 0.00 | 100 | |
| 20260904131501 | 62 | 140 | 10.0 | 15.0 | 0.00 | 0.00 | 0.00 | 100 | |
| 20260904131301 | 62 | 102 | 10.0 | 14.0 | 0.00 | 0.00 | 0.00 | 100 | |
| 20260904131101 | 62 | 143 | 10.0 | 14.0 | 0.00 | 0.00 | 0.00 | 100 | |
| 20260904130859 | 62 | 142 | 10.0 | 14.0 | 0.00 | 0.00 | 0.00 | 100 | |
| 20260904130659 | 62 | 129 | 8.0 | 12.0 | 0.00 | 0.00 | 0.00 | 100 | |
| 20260904130459 | 62 | 126 | 10.0 | 17.0 | 0.00 | 0.00 | 0.00 | 100 | |
| 20260904130300 | 62 | 129 | 8.0 | 11.0 | 0.00 | 0.00 | 0.00 | 100 | |
| 20260904130059 | 62 | 110 | 9.0 | 12.0 | 0.00 | 0.00 | 0.00 | 100 | |
| 20260904125859 | 62 | 153 | 9.0 | 12.0 | 0.00 | 0.00 | 0.00 | 100 | |
| 20260904125659 | 62 | 117 | 8.0 | 13.0 | 0.00 | 0.00 | 0.00 | 100 | |
| 20260904125459 | 63 | 110 | 7.0 | 12.0 | 0.00 | 0.00 | 0.00 | 100 | |
| 20260904125259 | 63 | 129 | 9.0 | 16.0 | 0.00 | 0.00 | 0.00 | 100 | |
| 20260904125059 | 63 | 127 | 9.0 | 16.0 | 0.00 | 0.00 | 0.00 | 100 | |
| 20260904124857 | 63 | 118 | 8.0 | 16.0 | 0.00 | 0.00 | 0.00 | 100 | |
| 20260904124657 | 63 | 118 | 7.0 | 16.0 | 0.00 | 0.00 | 0.00 | 100 | |
| 20260904124457 | 63 | 104 | 8.0 | 13.0 | 0.00 | 0.00 | 0.00 | 100 | |
| 20260904124257 | 63 | 137 | 11.0 | 17.0 | 0.00 | 0.00 | 0.00 | 100 | |
| 20260904124057 | 63 | 138 | 10.0 | 17.0 | 0.00 | 0.00 | 0.00 | 100 | |
| 20260904123856 | 63 | 139 | 8.0 | 13.0 | 0.00 | 0.00 | 0.00 | 100 | |
| 20260904123656 | 63 | 130 | 8.0 | 11.0 | 0.00 | 0.00 | 0.00 | 100 | |
| 20260904123456 | 62 | 116 | 8.0 | 16.0 | 0.00 | 0.00 | 0.00 | 100 | |
| 20260904123256 | 62 | 114 | 10.0 | 16.0 | 0.00 | 0.00 | 0.00 | 100 | |
| 20260904123057 | 61 | 115 | 9.0 | 15.0 | 0.00 | 0.00 | 0.00 | 100 | |
| 20260904122855 | 61 | 118 | 10.0 | 14.0 | 0.00 | 0.00 | 0.00 | 100 | |
| 20260904122655 | 61 | 138 | 8.0 | 12.0 | 0.00 | 0.00 | 0.00 | 100 | |
| 20260904122455 | 61 | 139 | 9.0 | 14.0 | 0.00 | 0.00 | 0.00 | 100 | |
| 20260904122255 | 61 | 141 | 8.0 | 10.0 | 0.00 | 0.00 | 0.00 | 100 | |
| 20260904122055 | 61 | 134 | 9.0 | 15.0 | 0.00 | 0.00 | 0.00 | 100 | |
| 20260904121854 | 61 | 117 | 8.0 | 11.0 | 0.00 | 0.00 | 0.00 | 100 | |
| 20260904121654 | 61 | 140 | 7.0 | 12.0 | 0.00 | 0.00 | 0.00 | 100 | |
| 20260904121454 | 61 | 128 | 7.0 | 12.0 | 0.00 | 0.00 | 0.00 | 100 | |
| 20260904121254 | 61 | 170 | 7.0 | 10.0 | 0.00 | 0.00 | 0.00 | 100 | |
| 20260904121054 | 61 | 143 | 10.0 | 16.0 | 0.00 | 0.00 | 0.00 | 100 | |
| 20260904120852 | 61 | 152 | 11.0 | 16.0 | 0.00 | 0.00 | 0.00 | 100 | |
| 20260904120652 | 61 | 161 | 10.0 | 16.0 | 0.00 | 0.00 | 0.00 | 100 | |
| 20260904120452 | 61 | 150 | 9.0 | 14.0 | 0.00 | 0.00 | 0.00 | 100 | |
| 20260904120252 | 61 | 116 | 10.0 | 16.0 | 0.00 | 0.00 | 0.00 | 100 | |
| 20260904120052 | 61 | 111 | 11.0 | 18.0 | 0.00 | 0.00 | 0.00 | 100 | |
| 20260904115852 | 61 | 155 | 11.0 | 18.0 | 0.00 | 0.00 | 0.00 | 100 | |
| 20260904115652 | 61 | 130 | 12.0 | 20.0 | 0.00 | 0.00 | 0.00 | 100 | |
| 20260904115452 | 61 | 113 | 9.0 | 15.0 | 0.00 | 0.00 | 0.00 | 100 | |
| 20260904115252 | 61 | 133 | 10.0 | 16.0 | 0.00 | 0.00 | 0.00 | 100 | |
| 20260904115052 | 61 | 156 | 9.0 | 13.0 | 0.00 | 0.00 | 0.00 | 100 | |
| 20260904114850 | 61 | 164 | 10.0 | 15.0 | 0.00 | 0.00 | 0.00 | 100 | |
| 20260904114654 | 61 | 138 | 10.0 | 14.0 | 0.00 | 0.00 | 0.00 | 100 | |
| 20260904114450 | 61 | 152 | 10.0 | 16.0 | 0.00 | 0.00 | 0.00 | 100 | |
| 20260904114250 | 61 | 143 | 9.0 | 13.0 | 0.00 | 0.00 | 0.00 | 100 | |
| 20260904114050 | 61 | 140 | 10.0 | 14.0 | 0.00 | 0.00 | 0.00 | 100 | |
| 20260904113850 | 61 | 151 | 9.0 | 14.0 | 0.00 | 0.00 | 0.00 | 100 | |
| 20260904113650 | 61 | 144 | 8.0 | 12.0 | 0.00 | 0.00 | 0.00 | 100 | |
| 20260904113450 | 61 | 104 | 10.0 | 13.0 | 0.00 | 0.00 | 0.00 | 100 | |
| 20260904113250 | 61 | 123 | 9.0 | 12.0 | 0.00 | 0.00 | 0.00 | 100 | |
| 20260904113050 | 61 | 150 | 9.0 | 17.0 | 0.00 | 0.00 | 0.00 | 100 | |
| 20260904112848 | 61 | 82 | 8.0 | 12.0 | 0.00 | 0.00 | 0.00 | 100 | |
| 20260904112648 | 61 | 84 | 8.0 | 14.0 | 0.00 | 0.00 | 0.00 | 100 | |
| 20260904112448 | 61 | 126 | 9.0 | 14.0 | 0.00 | 0.00 | 0.00 | 100 | |
| 20260904112248 | 61 | 144 | 9.0 | 13.0 | 0.00 | 0.00 | 0.00 | 100 | |
| 20260904112048 | 61 | 130 | 8.0 | 12.0 | 0.00 | 0.00 | 0.00 | 100 | |
| 20260904111848 | 61 | 145 | 10.0 | 20.0 | 0.00 | 0.00 | 0.00 | 100 | |
| 20260904111648 | 61 | 120 | 9.0 | 20.0 | 0.00 | 0.00 | 0.00 | 100 | |
| 20260904111448 | 61 | 134 | 9.0 | 14.0 | 0.00 | 0.00 | 0.00 | 100 | |
| 20260904111241 | 61 | 159 | 10.0 | 18.0 | 0.00 | 0.00 | 0.00 | 100 | |
| 20260904111041 | 61 | 151 | 10.0 | 16.0 | 0.00 | 0.00 | 0.00 | 100 | |
| 20260904110839 | 61 | 173 | 9.0 | 18.0 | 0.00 | 0.00 | 0.00 | 100 | |
| 20260904110639 | 62 | 136 | 9.0 | 16.0 | 0.00 | 0.00 | 0.00 | 100 | |
| 20260904110439 | 62 | 110 | 10.0 | 16.0 | 0.00 | 0.00 | 0.00 | 100 | |
| 20260904110239 | 62 | 126 | 9.0 | 13.0 | 0.00 | 0.00 | 0.00 | 100 | |
| 20260904110039 | 63 | 125 | 8.0 | 13.0 | 0.00 | 0.00 | 0.00 | 100 | |
| 20260904105839 | 63 | 143 | 8.0 | 12.0 | 0.00 | 0.00 | 0.00 | 100 | |
| 20260904105639 | 64 | 135 | 10.0 | 16.0 | 0.00 | 0.00 | 0.00 | 100 | |
| 20260904105439 | 64 | 124 | 11.0 | 19.0 | 0.00 | 0.00 | 0.00 | 100 | |
| 20260904105239 | 64 | 141 | 12.0 | 19.0 | 0.00 | 0.00 | 0.00 | 100 | |
| 20260904105039 | 64 | 137 | 9.0 | 13.0 | 0.00 | 0.00 | 0.00 | 100 | |
| 20260904104837 | 64 | 147 | 10.0 | 19.0 | 0.00 | 0.00 | 0.00 | 100 | |
| 20260904104637 | 63 | 159 | 12.0 | 19.0 | 0.00 | 0.00 | 0.00 | 100 | |
| 20260904104437 | 63 | 140 | 10.0 | 15.0 | 0.00 | 0.00 | 0.00 | 100 | |
| 20260904104237 | 63 | 136 | 9.0 | 12.0 | 0.00 | 0.00 | 0.00 | 100 | |
| 20260904104037 | 63 | 137 | 10.0 | 16.0 | 0.00 | 0.00 | 0.00 | 100 | |
| 20260904103837 | 62 | 176 | 10.0 | 20.0 | 0.00 | 0.00 | 0.00 | 100 | |
| 20260904103637 | 62 | 138 | 12.0 | 17.0 | 0.00 | 0.00 | 0.00 | 100 | |
| 20260904103437 | 62 | 139 | 11.0 | 18.0 | 0.00 | 0.00 | 0.00 | 100 | |
| 20260904103237 | 62 | 129 | 11.0 | 18.0 | 0.00 | 0.00 | 0.00 | 100 | |
| 20260904103037 | 62 | 159 | 10.0 | 16.0 | 0.00 | 0.00 | 0.00 | 100 | |
| 20260904102836 | 62 | 161 | 11.0 | 19.0 | 0.00 | 0.00 | 0.00 | 100 | |
| 20260904102636 | 62 | 169 | 10.0 | 17.0 | 0.00 | 0.00 | 0.00 | 100 | |
| 20260904102436 | 62 | 200 | 12.0 | 17.0 | 0.00 | 0.00 | 0.00 | 100 | |
| 20260904102236 | 62 | 153 | 12.0 | 18.0 | 0.00 | 0.00 | 0.00 | 100 | |
| 20260904102036 | 61 | 180 | 12.0 | 24.0 | 0.00 | 0.00 | 0.00 | 100 | |
| 20260904101836 | 61 | 123 | 9.0 | 24.0 | 0.00 | 0.00 | 0.00 | 100 | |
| 20260904101636 | 60 | 130 | 10.0 | 13.0 | 0.00 | 0.00 | 0.00 | 100 | |
| 20260904101436 | 60 | 148 | 10.0 | 20.0 | 0.00 | 0.00 | 0.00 | 100 | |
| 20260904101236 | 60 | 157 | 10.0 | 20.0 | 0.00 | 0.00 | 0.00 | 100 | |
| 20260904101036 | 61 | 118 | 9.0 | 14.0 | 0.00 | 0.00 | 0.00 | 100 | |
| 20260904100834 | 61 | 119 | 8.0 | 15.0 | 0.00 | 0.00 | 0.00 | 100 | |
| 20260904100634 | 60 | 147 | 9.0 | 15.0 | 0.00 | 0.00 | 0.00 | 100 | |
| 20260904100434 | 60 | 152 | 9.0 | 12.0 | 0.00 | 0.00 | 0.00 | 100 | |
| 20260904100234 | 59 | 133 | 8.0 | 13.0 | 0.00 | 0.00 | 0.00 | 100 | |
| 20260904100034 | 59 | 135 | 9.0 | 16.0 | 0.00 | 0.00 | 0.00 | 100 | |
| 20260904095832 | 59 | 153 | 9.0 | 16.0 | 0.00 | 0.00 | 0.00 | 100 | |
| 20260904095632 | 59 | 150 | 10.0 | 19.0 | 0.00 | 0.00 | 0.00 | 100 | |
| 20260904095432 | 59 | 172 | 10.0 | 15.0 | 0.00 | 0.00 | 0.00 | 100 | |
| 20260904095232 | 59 | 115 | 11.0 | 14.0 | 0.00 | 0.00 | 0.00 | 100 | |
| 20260904095032 | 59 | 116 | 10.0 | 13.0 | 0.00 | 0.00 | 0.00 | 100 | |
| 20260904094830 | 59 | 136 | 9.0 | 14.0 | 0.00 | 0.00 | 0.00 | 100 | |
| 20260904094630 | 59 | 125 | 10.0 | 14.0 | 0.00 | 0.00 | 0.00 | 100 | |
| 20260904094430 | 59 | 144 | 12.0 | 18.0 | 0.00 | 0.00 | 0.00 | 100 | |
| 20260904094230 | 59 | 129 | 13.0 | 18.0 | 0.00 | 0.00 | 0.00 | 100 | |
| 20260904094030 | 59 | 174 | 14.0 | 19.0 | 0.00 | 0.00 | 0.00 | 100 | |
| 20260904093830 | 59 | 173 | 14.0 | 19.0 | 0.00 | 0.00 | 0.00 | 100 | |
| 20260904093630 | 59 | 135 | 12.0 | 22.0 | 0.00 | 0.00 | 0.00 | 100 | |
| 20260904093430 | 59 | 150 | 10.0 | 20.0 | 0.00 | 0.00 | 0.00 | 100 | |
| 20260904093230 | 59 | 145 | 10.0 | 15.0 | 0.00 | 0.00 | 0.00 | 100 | |
| 20260904093031 | 59 | 157 | 12.0 | 16.0 | 0.00 | 0.00 | 0.00 | 100 | |
| 20260904092829 | 58 | 140 | 11.0 | 17.0 | 0.00 | 0.00 | 0.00 | 100 | |
| 20260904092629 | 58 | 136 | 10.0 | 17.0 | 0.00 | 0.00 | 0.00 | 100 | |
| 20260904092429 | 58 | 153 | 12.0 | 17.0 | 0.00 | 0.00 | 0.00 | 100 | |
| 20260904092229 | 58 | 128 | 11.0 | 17.0 | 0.00 | 0.00 | 0.00 | 100 | |
| 20260904092029 | 57 | 110 | 11.0 | 16.0 | 0.00 | 0.00 | 0.00 | 100 | |
| 20260904091829 | 57 | 122 | 10.0 | 15.0 | 0.00 | 0.00 | 0.00 | 100 | |
| 20260904091629 | 57 | 139 | 11.0 | 18.0 | 0.00 | 0.00 | 0.00 | 100 | |
| 20260904091429 | 57 | 157 | 10.0 | 18.0 | 0.00 | 0.00 | 0.00 | 100 | |
| 20260904091229 | 58 | 180 | 12.0 | 18.0 | 0.00 | 0.00 | 0.00 | 100 | |
| 20260904091029 | 58 | 128 | 11.0 | 18.0 | 0.00 | 0.00 | 0.00 | 100 | |
| 20260904090827 | 58 | 149 | 10.0 | 15.0 | 0.00 | 0.00 | 0.00 | 100 | |
| 20260904090627 | 58 | 159 | 11.0 | 18.0 | 0.00 | 0.00 | 0.00 | 100 | |
| 20260904090427 | 58 | 113 | 10.0 | 15.0 | 0.00 | 0.00 | 0.00 | 100 | |
| 20260904090227 | 58 | 91 | 10.0 | 15.0 | 0.00 | 0.00 | 0.00 | 100 | |
| 20260904090027 | 58 | 123 | 10.0 | 15.0 | 0.00 | 0.00 | 0.00 | 100 | |
| 20260904085827 | 58 | 136 | 10.0 | 16.0 | 0.00 | 0.00 | 0.00 | 100 | |
| 20260904085627 | 58 | 140 | 9.0 | 16.0 | 0.00 | 0.00 | 0.00 | 100 | |
| 20260904085427 | 58 | 158 | 11.0 | 16.0 | 0.00 | 0.00 | 0.00 | 100 | |
| 20260904085227 | 58 | 118 | 9.0 | 14.0 | 0.00 | 0.00 | 0.00 | 100 | |
| 20260904085027 | 58 | 98 | 10.0 | 13.0 | 0.00 | 0.00 | 0.00 | 100 | |
| 20260904084825 | 58 | 175 | 10.0 | 14.0 | 0.00 | 0.00 | 0.00 | 100 | |
| 20260904084625 | 58 | 150 | 8.0 | 14.0 | 0.00 | 0.00 | 0.00 | 100 | |
| 20260904084425 | 57 | 141 | 9.0 | 14.0 | 0.00 | 0.00 | 0.00 | 100 | |
| 20260904084225 | 57 | 129 | 9.0 | 13.0 | 0.00 | 0.00 | 0.00 | 100 | |
| 20260904084025 | 57 | 136 | 8.0 | 12.0 | 0.00 | 0.00 | 0.00 | 100 | |
| 20260904083816 | 57 | 102 | 8.0 | 12.0 | 0.00 | 0.00 | 0.00 | 100 | |
| 20260904083616 | 57 | 84 | 8.0 | 12.0 | 0.00 | 0.00 | 0.00 | 100 | |
| 20260904083416 | 57 | 131 | 9.0 | 13.0 | 0.00 | 0.00 | 0.00 | 100 | |
| 20260904083216 | 57 | 108 | 10.0 | 16.0 | 0.00 | 0.00 | 0.00 | 100 | |
| 20260904083016 | 57 | 143 | 7.0 | 13.0 | 0.00 | 0.00 | 0.00 | 100 | |
| 20260904082814 | 57 | 135 | 8.0 | 13.0 | 0.00 | 0.00 | 0.00 | 100 | |
| 20260904082614 | 57 | 110 | 8.0 | 12.0 | 0.00 | 0.00 | 0.00 | 100 | |
| 20260904082414 | 57 | 159 | 7.0 | 12.0 | 0.00 | 0.00 | 0.00 | 100 | |
| 20260904082214 | 57 | 121 | 6.0 | 10.0 | 0.00 | 0.00 | 0.00 | 100 | |
| 20260904082014 | 57 | 100 | 9.0 | 12.0 | 0.00 | 0.00 | 0.00 | 100 | |
| 20260904081814 | 57 | 98 | 7.0 | 14.0 | 0.00 | 0.00 | 0.00 | 100 | |
| 20260904081614 | 56 | 130 | 9.0 | 14.0 | 0.00 | 0.00 | 0.00 | 100 | |
| 20260904081414 | 56 | 138 | 10.0 | 14.0 | 0.00 | 0.00 | 0.00 | 100 | |
| 20260904081214 | 56 | 151 | 8.0 | 10.0 | 0.00 | 0.00 | 0.00 | 100 | |
| 20260904081014 | 56 | 169 | 9.0 | 13.0 | 0.00 | 0.00 | 0.00 | 100 | |
| 20260904080812 | 56 | 119 | 8.0 | 15.0 | 0.00 | 0.00 | 0.00 | 100 | |
| 20260904080612 | 56 | 119 | 6.0 | 10.0 | 0.00 | 0.00 | 0.00 | 100 | |
| 20260904080411 | 56 | 108 | 7.0 | 11.0 | 0.00 | 0.00 | 0.00 | 100 | |
| 20260904080211 | 56 | 102 | 8.0 | 12.0 | 0.00 | 0.00 | 0.00 | 100 | |
| 20260904080011 | 56 | 111 | 7.0 | 12.0 | 0.00 | 0.00 | 0.00 | 100 | |
| 20260904075811 | 56 | 112 | 7.0 | 12.0 | 0.00 | 0.00 | 0.00 | 100 | |
| 20260904075611 | 56 | 117 | 9.0 | 14.0 | 0.00 | 0.00 | 0.00 | 100 | |
| 20260904075411 | 56 | 139 | 8.0 | 13.0 | 0.00 | 0.00 | 0.00 | 100 | |
| 20260904075211 | 56 | 143 | 8.0 | 12.0 | 0.00 | 0.00 | 0.00 | 100 | |
| 20260904075011 | 56 | 148 | 7.0 | 12.0 | 0.00 | 0.00 | 0.00 | 100 | |
| 20260904074810 | 56 | 132 | 7.0 | 13.0 | 0.00 | 0.00 | 0.00 | 100 | |
| 20260904074610 | 56 | 102 | 7.0 | 13.0 | 0.00 | 0.00 | 0.00 | 100 | |
| 20260904074410 | 56 | 118 | 7.0 | 11.0 | 0.00 | 0.00 | 0.00 | 100 | |
| 20260904074209 | 56 | 155 | 7.0 | 11.0 | 0.00 | 0.00 | 0.00 | 100 | |
| 20260904074009 | 56 | 128 | 9.0 | 12.0 | 0.00 | 0.00 | 0.00 | 100 | |
| 20260904073809 | 56 | 105 | 8.0 | 11.0 | 0.00 | 0.00 | 0.00 | 100 | |
| 20260904073609 | 56 | 118 | 8.0 | 12.0 | 0.00 | 0.00 | 0.00 | 100 | |
| 20260904073409 | 56 | 146 | 8.0 | 14.0 | 0.00 | 0.00 | 0.00 | 100 | |
| 20260904073209 | 56 | 183 | 9.0 | 17.0 | 0.00 | 0.00 | 0.00 | 100 | |
| 20260904073009 | 56 | 114 | 8.0 | 12.0 | 0.00 | 0.00 | 0.00 | 100 | |
| 20260904072807 | 56 | 130 | 8.0 | 12.0 | 0.00 | 0.00 | 0.00 | 100 | |
| 20260904072607 | 56 | 117 | 7.0 | 11.0 | 0.00 | 0.00 | 0.00 | 100 | |
| 20260904072407 | 55 | 150 | 9.0 | 14.0 | 0.00 | 0.00 | 0.00 | 100 | |
| 20260904072206 | 55 | 121 | 9.0 | 14.0 | 0.00 | 0.00 | 0.00 | 100 | |
| 20260904072006 | 55 | 111 | 8.0 | 12.0 | 0.00 | 0.00 | 0.00 | 100 | |
| 20260904071807 | 55 | 103 | 8.0 | 11.0 | 0.00 | 0.00 | 0.00 | 100 | |
| 20260904071607 | 55 | 68 | 7.0 | 10.0 | 0.00 | 0.00 | 0.00 | 100 | |
| 20260904071407 | 55 | 133 | 7.0 | 10.0 | 0.00 | 0.00 | 0.00 | 100 | |
| 20260904071207 | 55 | 155 | 9.0 | 16.0 | 0.00 | 0.00 | 0.00 | 100 | |
| 20260904071007 | 55 | 156 | 7.0 | 12.0 | 0.00 | 0.00 | 0.00 | 100 | |
| 20260904070805 | 55 | 141 | 7.0 | 11.0 | 0.00 | 0.00 | 0.00 | 100 | |
| 20260904070605 | 55 | 146 | 7.0 | 11.0 | 0.00 | 0.00 | 0.00 | 100 | |
| 20260904070405 | 54 | 155 | 7.0 | 10.0 | 0.00 | 0.00 | 0.00 | 100 | |
| 20260904070205 | 54 | 111 | 6.0 | 8.0 | 0.00 | 0.00 | 0.00 | 100 | |
| 20260904070004 | 54 | 113 | 8.0 | 11.0 | 0.00 | 0.00 | 0.00 | 100 | |
| 20260904065804 | 54 | 129 | 8.0 | 12.0 | 0.00 | 0.00 | 0.00 | 100 | |
| 20260904065604 | 54 | 123 | 8.0 | 12.0 | 0.00 | 0.00 | 0.00 | 100 | |
| 20260904065404 | 54 | 115 | 8.0 | 11.0 | 0.00 | 0.00 | 0.00 | 100 | |
| 20260904065204 | 54 | 120 | 7.0 | 11.0 | 0.00 | 0.00 | 0.00 | 100 | |
| 20260904065004 | 54 | 100 | 8.0 | 14.0 | 0.00 | 0.00 | 0.00 | 100 | |
| 20260904064802 | 54 | 145 | 7.0 | 10.0 | 0.00 | 0.00 | 0.00 | 100 | |
| 20260904064602 | 54 | 144 | 7.0 | 10.0 | 0.00 | 0.00 | 0.00 | 100 | |
| 20260904064402 | 54 | 125 | 7.0 | 12.0 | 0.00 | 0.00 | 0.00 | 100 | |
| 20260904064202 | 54 | 96 | 8.0 | 12.0 | 0.00 | 0.00 | 0.00 | 100 | |
| 20260904064002 | 54 | 105 | 8.0 | 11.0 | 0.00 | 0.00 | 0.00 | 100 | |
| 20260904063802 | 54 | 125 | 8.0 | 11.0 | 0.00 | 0.00 | 0.00 | 100 | |
| 20260904063602 | 54 | 123 | 6.0 | 10.0 | 0.00 | 0.00 | 0.00 | 100 | |
| 20260904063402 | 54 | 94 | 6.0 | 11.0 | 0.00 | 0.00 | 0.00 | 100 | |
| 20260904063202 | 54 | 90 | 6.0 | 11.0 | 0.00 | 0.00 | 0.00 | 100 | |
| 20260904063002 | 54 | 116 | 6.0 | 10.0 | 0.00 | 0.00 | 0.00 | 100 | |
| 20260904062800 | 54 | 116 | 8.0 | 11.0 | 0.00 | 0.00 | 0.00 | 100 | |
| 20260904062600 | 54 | 115 | 8.0 | 12.0 | 0.00 | 0.00 | 0.00 | 100 | |
| 20260904062400 | 54 | 138 | 9.0 | 13.0 | 0.00 | 0.00 | 0.00 | 100 | |
| 20260904062200 | 54 | 121 | 9.0 | 12.0 | 0.00 | 0.00 | 0.00 | 100 | |
| 20260904062000 | 54 | 119 | 7.0 | 12.0 | 0.00 | 0.00 | 0.00 | 100 | |
| 20260904061800 | 54 | 149 | 6.0 | 11.0 | 0.00 | 0.00 | 0.00 | 100 | |
| 20260904061600 | 54 | 158 | 8.0 | 12.0 | 0.00 | 0.00 | 0.00 | 100 | |
| 20260904061400 | 54 | 150 | 8.0 | 12.0 | 0.00 | 0.00 | 0.00 | 100 | |
| 20260904061201 | 54 | 142 | 8.0 | 12.0 | 0.00 | 0.00 | 0.00 | 100 | |
| 20260904061001 | 54 | 131 | 7.0 | 9.0 | 0.00 | 0.00 | 0.00 | 100 | |
| 20260904060759 | 54 | 130 | 6.0 | 9.0 | 0.00 | 0.00 | 0.00 | 100 | |
| 20260904060559 | 54 | 140 | 7.0 | 10.0 | 0.00 | 0.00 | 0.00 | 100 | |
| 20260904060359 | 54 | 141 | 7.0 | 10.0 | 0.00 | 0.00 | 0.00 | 100 | |
| 20260904060151 | 53 | 108 | 7.0 | 9.0 | 0.00 | 0.00 | 0.00 | 100 | |
| 20260904055951 | 53 | 135 | 8.0 | 11.0 | 0.00 | 0.00 | 0.00 | 100 | |
| 20260904055751 | 53 | 119 | 8.0 | 11.0 | 0.00 | 0.00 | 0.00 | 100 | |
| 20260904055551 | 53 | 97 | 6.0 | 9.0 | 0.00 | 0.00 | 0.00 | 100 | |
| 20260904055351 | 53 | 106 | 6.0 | 9.0 | 0.00 | 0.00 | 0.00 | 100 | |
| 20260904055151 | 53 | 134 | 7.0 | 9.0 | 0.00 | 0.00 | 0.00 | 100 | |
| 20260904054951 | 53 | 97 | 6.0 | 8.0 | 0.00 | 0.00 | 0.00 | 100 | |
| 20260904054750 | 53 | 70 | 6.0 | 7.0 | 0.00 | 0.00 | 0.00 | 100 | |
| 20260904054547 | 53 | 96 | 7.0 | 10.0 | 0.00 | 0.00 | 0.00 | 100 | |
| 20260904054347 | 53 | 143 | 7.0 | 13.0 | 0.00 | 0.00 | 0.00 | 100 | |
| 20260904054147 | 53 | 115 | 6.0 | 13.0 | 0.00 | 0.00 | 0.00 | 100 | |
| 20260904053948 | 53 | 155 | 7.0 | 13.0 | 0.00 | 0.00 | 0.00 | 100 | |
| 20260904053748 | 53 | 162 | 8.0 | 12.0 | 0.00 | 0.00 | 0.00 | 100 | |
| 20260904053547 | 53 | 180 | 8.0 | 13.0 | 0.00 | 0.00 | 0.00 | 100 | |
| 20260904053347 | 53 | 173 | 8.0 | 13.0 | 0.00 | 0.00 | 0.00 | 100 | |
| 20260904053147 | 53 | 156 | 7.0 | 11.0 | 0.00 | 0.00 | 0.00 | 100 | |
| 20260904052947 | 53 | 152 | 7.0 | 12.0 | 0.00 | 0.00 | 0.00 | 100 | |
| 20260904052745 | 53 | 142 | 8.0 | 12.0 | 0.00 | 0.00 | 0.00 | 100 | |
| 20260904052545 | 53 | 120 | 8.0 | 10.0 | 0.00 | 0.00 | 0.00 | 100 | |
| 20260904052345 | 53 | 120 | 8.0 | 10.0 | 0.00 | 0.00 | 0.00 | 100 | |
| 20260904052145 | 53 | 156 | 8.0 | 10.0 | 0.00 | 0.00 | 0.00 | 100 | |
| 20260904051945 | 53 | 122 | 8.0 | 12.0 | 0.00 | 0.00 | 0.00 | 100 | |
| 20260904051745 | 53 | 155 | 8.0 | 10.0 | 0.00 | 0.00 | 0.00 | 100 | |
| 20260904051545 | 53 | 149 | 8.0 | 10.0 | 0.00 | 0.00 | 0.00 | 100 | |
| 20260904051344 | 53 | 135 | 8.0 | 11.0 | 0.00 | 0.00 | 0.00 | 100 | |
| 20260904051144 | 53 | 159 | 8.0 | 11.0 | 0.00 | 0.00 | 0.00 | 100 | |
| 20260904050944 | 53 | 202 | 8.0 | 12.0 | 0.00 | 0.00 | 0.00 | 100 | |
| 20260904050743 | 53 | 123 | 7.0 | 12.0 | 0.00 | 0.00 | 0.00 | 100 | |
| 20260904050543 | 53 | 153 | 8.0 | 11.0 | 0.00 | 0.00 | 0.00 | 100 | |
| 20260904050343 | 53 | 180 | 9.0 | 12.0 | 0.00 | 0.00 | 0.00 | 100 | |
| 20260904050143 | 53 | 133 | 7.0 | 10.0 | 0.00 | 0.00 | 0.00 | 100 | |
| 20260904045943 | 53 | 153 | 7.0 | 12.0 | 0.00 | 0.00 | 0.00 | 100 | |
| 20260904045743 | 53 | 174 | 7.0 | 12.0 | 0.00 | 0.00 | 0.00 | 100 | |
| 20260904045543 | 53 | 180 | 8.0 | 14.0 | 0.00 | 0.00 | 0.00 | 100 | |
| 20260904045342 | 53 | 171 | 9.0 | 14.0 | 0.00 | 0.00 | 0.00 | 100 | |
| 20260904045142 | 53 | 155 | 9.0 | 12.0 | 0.00 | 0.00 | 0.00 | 100 | |
| 20260904044942 | 53 | 140 | 8.0 | 11.0 | 0.00 | 0.00 | 0.00 | 100 | |
| 20260904044740 | 53 | 182 | 8.0 | 14.0 | 0.00 | 0.00 | 0.00 | 100 | |
| 20260904044540 | 53 | 178 | 8.0 | 13.0 | 0.00 | 0.00 | 0.00 | 100 | |
| 20260904044340 | 53 | 123 | 9.0 | 13.0 | 0.00 | 0.00 | 0.00 | 100 | |
| 20260904044140 | 53 | 101 | 8.0 | 11.0 | 0.00 | 0.00 | 0.00 | 100 | |
| 20260904043940 | 53 | 100 | 8.0 | 13.0 | 0.00 | 0.00 | 0.00 | 100 | |
| 20260904043740 | 53 | 128 | 9.0 | 13.0 | 0.00 | 0.00 | 0.00 | 100 | |
| 20260904043540 | 53 | 123 | 7.0 | 11.0 | 0.00 | 0.00 | 0.00 | 100 | |
| 20260904043340 | 53 | 100 | 7.0 | 11.0 | 0.00 | 0.00 | 0.00 | 100 | |
| 20260904043140 | 53 | 103 | 8.0 | 11.0 | 0.00 | 0.00 | 0.00 | 100 | |
| 20260904042940 | 53 | 108 | 9.0 | 12.0 | 0.00 | 0.00 | 0.00 | 100 | |
| 20260904042738 | 53 | 90 | 10.0 | 13.0 | 0.00 | 0.00 | 0.00 | 100 | |
| 20260904042538 | 53 | 159 | 9.0 | 14.0 | 0.00 | 0.00 | 0.00 | 100 | |
| 20260904042338 | 53 | 126 | 10.0 | 17.0 | 0.00 | 0.00 | 0.00 | 100 | |
| 20260904042138 | 53 | 167 | 9.0 | 13.0 | 0.00 | 0.00 | 0.00 | 100 | |
| 20260904041938 | 53 | 139 | 9.0 | 12.0 | 0.00 | 0.00 | 0.00 | 100 | |
| 20260904041738 | 53 | 127 | 9.0 | 13.0 | 0.00 | 0.00 | 0.00 | 100 | |
| 20260904041538 | 53 | 244 | 8.0 | 12.0 | 0.00 | 0.00 | 0.00 | 100 | |
| 20260904041338 | 53 | 133 | 8.0 | 11.0 | 0.00 | 0.00 | 0.00 | 100 | |
| 20260904041137 | 53 | 158 | 10.0 | 17.0 | 0.00 | 0.00 | 0.00 | 100 | |
| 20260904040937 | 53 | 170 | 10.0 | 17.0 | 0.00 | 0.00 | 0.00 | 100 | |
| 20260904040735 | 53 | 138 | 8.0 | 11.0 | 0.00 | 0.00 | 0.00 | 100 | |
| 20260904040535 | 53 | 168 | 8.0 | 14.0 | 0.00 | 0.00 | 0.00 | 100 | |
| 20260904040335 | 53 | 147 | 8.0 | 14.0 | 0.00 | 0.00 | 0.00 | 100 | |
| 20260904040135 | 53 | 105 | 8.0 | 12.0 | 0.00 | 0.00 | 0.00 | 100 | |
| 20260904035935 | 53 | 97 | 8.0 | 16.0 | 0.00 | 0.00 | 0.00 | 100 | |
| 20260904035735 | 53 | 134 | 8.0 | 16.0 | 0.00 | 0.00 | 0.00 | 100 | |
| 20260904035536 | 53 | 117 | 8.0 | 11.0 | 0.00 | 0.00 | 0.00 | 100 | |
| 20260904035336 | 53 | 132 | 9.0 | 12.0 | 0.00 | 0.00 | 0.00 | 100 | |
| 20260904035136 | 53 | 148 | 9.0 | 13.0 | 0.00 | 0.00 | 0.00 | 100 | |
| 20260904034935 | 53 | 140 | 9.0 | 12.0 | 0.00 | 0.00 | 0.00 | 100 | |
| 20260904034733 | 53 | 123 | 9.0 | 12.0 | 0.00 | 0.00 | 0.00 | 100 | |
| 20260904034533 | 53 | 180 | 10.0 | 14.0 | 0.00 | 0.00 | 0.00 | 100 | |
| 20260904034333 | 53 | 178 | 10.0 | 16.0 | 0.00 | 0.00 | 0.00 | 100 | |
| 20260904034133 | 53 | 144 | 11.0 | 18.0 | 0.00 | 0.00 | 0.00 | 100 | |
| 20260904033933 | 53 | 159 | 13.0 | 18.0 | 0.00 | 0.00 | 0.00 | 100 | |
| 20260904033733 | 53 | 124 | 12.0 | 19.0 | 0.00 | 0.00 | 0.00 | 100 | |
| 20260904033533 | 53 | 105 | 9.0 | 13.0 | 0.00 | 0.00 | 0.00 | 100 | |
| 20260904033333 | 53 | 159 | 9.0 | 14.0 | 0.00 | 0.00 | 0.00 | 100 | |
| 20260904033133 | 53 | 132 | 11.0 | 14.0 | 0.00 | 0.00 | 0.00 | 100 | |
| 20260904032933 | 53 | 164 | 12.0 | 18.0 | 0.00 | 0.00 | 0.00 | 100 | |
| 20260904032722 | 53 | 193 | 12.0 | 18.0 | 0.00 | 0.00 | 0.00 | 100 | |
| 20260904032522 | 53 | 156 | 10.0 | 17.0 | 0.00 | 0.00 | 0.00 | 100 | |
| 20260904032322 | 54 | 144 | 9.0 | 13.0 | 0.00 | 0.00 | 0.00 | 100 | |
| 20260904032122 | 54 | 158 | 9.0 | 12.0 | 0.00 | 0.00 | 0.00 | 100 | |
| 20260904031922 | 54 | 145 | 10.0 | 15.0 | 0.00 | 0.00 | 0.00 | 100 | |
| 20260904031722 | 54 | 171 | 11.0 | 15.0 | 0.00 | 0.00 | 0.00 | 100 | |
| 20260904031522 | 54 | 164 | 11.0 | 16.0 | 0.00 | 0.00 | 0.00 | 100 | |
| 20260904031322 | 54 | 185 | 11.0 | 18.0 | 0.00 | 0.00 | 0.00 | 100 | |
| 20260904031122 | 54 | 186 | 11.0 | 18.0 | 0.00 | 0.00 | 0.00 | 100 | |
| 20260904030922 | 54 | 148 | 9.0 | 14.0 | 0.00 | 0.00 | 0.00 | 100 | |
| 20260904030720 | 54 | 156 | 10.0 | 16.0 | 0.00 | 0.00 | 0.00 | 100 | |
| 20260904030520 | 54 | 148 | 10.0 | 16.0 | 0.00 | 0.00 | 0.00 | 100 | |
| 20260904030320 | 54 | 168 | 12.0 | 19.0 | 0.00 | 0.00 | 0.00 | 100 | |
| 20260904030120 | 54 | 217 | 12.0 | 19.0 | 0.00 | 0.00 | 0.00 | 100 | |
| 20260904025920 | 54 | 166 | 12.0 | 16.0 | 0.00 | 0.00 | 0.00 | 100 | |
| 20260904025720 | 54 | 146 | 12.0 | 16.0 | 0.00 | 0.00 | 0.00 | 100 | |
| 20260904025519 | 54 | 110 | 10.0 | 16.0 | 0.00 | 0.00 | 0.00 | 100 | |
| 20260904025319 | 54 | 123 | 11.0 | 14.0 | 0.00 | 0.00 | 0.00 | 100 | |
| 20260904025119 | 54 | 149 | 11.0 | 16.0 | 0.00 | 0.00 | 0.00 | 100 | |
| 20260904024919 | 54 | 146 | 11.0 | 16.0 | 0.00 | 0.00 | 0.00 | 100 | |
| 20260904024717 | 54 | 157 | 12.0 | 15.0 | 0.00 | 0.00 | 0.00 | 100 | |
| 20260904024517 | 54 | 184 | 13.0 | 17.0 | 0.00 | 0.00 | 0.00 | 100 | |
| 20260904024317 | 54 | 163 | 11.0 | 17.0 | 0.00 | 0.00 | 0.00 | 100 | |
| 20260904024118 | 54 | 134 | 10.0 | 13.0 | 0.00 | 0.00 | 0.00 | 100 | |
| 20260904023918 | 54 | 145 | 10.0 | 13.0 | 0.00 | 0.00 | 0.00 | 100 | |
| 20260904023718 | 54 | 127 | 10.0 | 12.0 | 0.00 | 0.00 | 0.00 | 100 | |
| 20260904023517 | 54 | 148 | 11.0 | 16.0 | 0.00 | 0.00 | 0.00 | 100 | |
| 20260904023317 | 54 | 146 | 11.0 | 16.0 | 0.00 | 0.00 | 0.00 | 100 | |
| 20260904023117 | 54 | 177 | 8.0 | 13.0 | 0.00 | 0.00 | 0.00 | 100 | |
| 20260904022917 | 54 | 198 | 6.0 | 10.0 | 0.00 | 0.00 | 0.00 | 100 | |
| 20260904022716 | 54 | 171 | 8.0 | 11.0 | 0.00 | 0.00 | 0.00 | 100 | |
| 20260904022516 | 54 | 159 | 10.0 | 14.0 | 0.00 | 0.00 | 0.00 | 100 | |
| 20260904022316 | 54 | 182 | 11.0 | 18.0 | 0.00 | 0.00 | 0.00 | 100 | |
| 20260904022116 | 54 | 180 | 12.0 | 15.0 | 0.00 | 0.00 | 0.00 | 100 | |
| 20260904021916 | 54 | 137 | 10.0 | 15.0 | 0.00 | 0.00 | 0.00 | 100 | |
| 20260904021716 | 54 | 145 | 11.0 | 16.0 | 0.00 | 0.00 | 0.00 | 100 | |
| 20260904021516 | 54 | 112 | 11.0 | 14.0 | 0.00 | 0.00 | 0.00 | 100 | |
| 20260904021316 | 54 | 183 | 10.0 | 14.0 | 0.00 | 0.00 | 0.00 | 100 | |
| 20260904021116 | 54 | 190 | 10.0 | 14.0 | 0.00 | 0.00 | 0.00 | 100 | |
| 20260904020916 | 54 | 150 | 10.0 | 14.0 | 0.00 | 0.00 | 0.00 | 100 | |
| 20260904020714 | 54 | 114 | 11.0 | 16.0 | 0.00 | 0.00 | 0.00 | 100 | |
| 20260904020514 | 54 | 170 | 8.0 | 16.0 | 0.00 | 0.00 | 0.00 | 100 | |
| 20260904020314 | 54 | 146 | 8.0 | 12.0 | 0.00 | 0.00 | 0.00 | 100 | |
| 20260904020114 | 54 | 131 | 10.0 | 15.0 | 0.00 | 0.00 | 0.00 | 100 | |
| 20260904015914 | 54 | 112 | 9.0 | 15.0 | 0.00 | 0.00 | 0.00 | 100 | |
| 20260904015714 | 54 | 135 | 8.0 | 10.0 | 0.00 | 0.00 | 0.00 | 100 | |
| 20260904015514 | 54 | 92 | 8.0 | 12.0 | 0.00 | 0.00 | 0.00 | 100 | |
| 20260904015314 | 54 | 136 | 8.0 | 11.0 | 0.00 | 0.00 | 0.00 | 100 | |
| 20260904015114 | 54 | 146 | 8.0 | 12.0 | 0.00 | 0.00 | 0.00 | 100 | |
| 20260904014914 | 54 | 91 | 7.0 | 10.0 | 0.00 | 0.00 | 0.00 | 100 | |
| 20260904014712 | 54 | 87 | 8.0 | 10.0 | 0.00 | 0.00 | 0.00 | 100 | |
| 20260904014512 | 54 | 114 | 8.0 | 11.0 | 0.00 | 0.00 | 0.00 | 100 | |
| 20260904014312 | 54 | 106 | 9.0 | 11.0 | 0.00 | 0.00 | 0.00 | 100 | |
| 20260904014112 | 54 | 119 | 9.0 | 14.0 | 0.00 | 0.00 | 0.00 | 100 | |
| 20260904013912 | 54 | 119 | 8.0 | 12.0 | 0.00 | 0.00 | 0.00 | 100 | |
| 20260904013710 | 54 | 133 | 8.0 | 12.0 | 0.00 | 0.00 | 0.00 | 100 | |
| 20260904013510 | 54 | 163 | 8.0 | 13.0 | 0.00 | 0.00 | 0.00 | 100 | |
| 20260904013310 | 54 | 135 | 8.0 | 12.0 | 0.00 | 0.00 | 0.00 | 100 | |
| 20260904013110 | 54 | 136 | 9.0 | 12.0 | 0.00 | 0.00 | 0.00 | 100 | |
| 20260904012910 | 54 | 171 | 8.0 | 12.0 | 0.00 | 0.00 | 0.00 | 100 | |
| 20260904012708 | 54 | 127 | 8.0 | 11.0 | 0.00 | 0.00 | 0.00 | 100 | |
| 20260904012508 | 54 | 87 | 8.0 | 11.0 | 0.00 | 0.00 | 0.00 | 100 | |
| 20260904012308 | 54 | 108 | 9.0 | 14.0 | 0.00 | 0.00 | 0.00 | 100 | |
| 20260904012108 | 54 | 129 | 9.0 | 13.0 | 0.00 | 0.00 | 0.00 | 100 | |
| 20260904011908 | 54 | 103 | 6.0 | 10.0 | 0.00 | 0.00 | 0.00 | 100 | |
| 20260904011708 | 54 | 131 | 9.0 | 15.0 | 0.00 | 0.00 | 0.00 | 100 | |
| 20260904011508 | 54 | 127 | 8.0 | 11.0 | 0.00 | 0.00 | 0.00 | 100 | |
| 20260904011308 | 54 | 111 | 8.0 | 10.0 | 0.00 | 0.00 | 0.00 | 100 | |
| 20260904011108 | 54 | 136 | 7.0 | 10.0 | 0.00 | 0.00 | 0.00 | 100 | |
| 20260904010908 | 54 | 142 | 6.0 | 9.0 | 0.00 | 0.00 | 0.00 | 100 | |
| 20260904010706 | 54 | 106 | 7.0 | 12.0 | 0.00 | 0.00 | 0.00 | 100 | |
| 20260904010506 | 54 | 138 | 9.0 | 13.0 | 0.00 | 0.00 | 0.00 | 100 | |
| 20260904010306 | 55 | 162 | 9.0 | 16.0 | 0.00 | 0.00 | 0.00 | 100 | |
| 20260904010106 | 55 | 185 | 8.0 | 12.0 | 0.00 | 0.00 | 0.00 | 100 | |
| 20260904005907 | 55 | 121 | 9.0 | 15.0 | 0.00 | 0.00 | 0.00 | 100 | |
| 20260904005707 | 54 | 112 | 10.0 | 15.0 | 0.00 | 0.00 | 0.00 | 100 | |
| 20260904005507 | 54 | 107 | 10.0 | 15.0 | 0.00 | 0.00 | 0.00 | 100 | |
| 20260904005307 | 54 | 126 | 10.0 | 13.0 | 0.00 | 0.00 | 0.00 | 100 | |
| 20260904005059 | 54 | 147 | 10.0 | 14.0 | 0.00 | 0.00 | 0.00 | 100 | |
| 20260904004859 | 54 | 101 | 9.0 | 12.0 | 0.00 | 0.00 | 0.00 | 100 | |
| 20260904004657 | 54 | 111 | 9.0 | 13.0 | 0.00 | 0.00 | 0.00 | 100 | |
| 20260904004457 | 55 | 104 | 8.0 | 13.0 | 0.00 | 0.00 | 0.00 | 100 | |
| 20260904004257 | 55 | 104 | 10.0 | 13.0 | 0.00 | 0.00 | 0.00 | 100 | |
| 20260904004057 | 55 | 122 | 9.0 | 11.0 | 0.00 | 0.00 | 0.00 | 100 | |
| 20260904003857 | 55 | 153 | 9.0 | 13.0 | 0.00 | 0.00 | 0.00 | 100 | |
| 20260904003657 | 55 | 176 | 10.0 | 13.0 | 0.00 | 0.00 | 0.00 | 100 | |
| 20260904003457 | 55 | 164 | 10.0 | 14.0 | 0.00 | 0.00 | 0.00 | 100 | |
| 20260904003257 | 55 | 120 | 9.0 | 13.0 | 0.00 | 0.00 | 0.00 | 100 | |
| 20260904003057 | 55 | 115 | 8.0 | 12.0 | 0.00 | 0.00 | 0.00 | 100 | |
| 20260904002857 | 55 | 114 | 9.0 | 13.0 | 0.00 | 0.00 | 0.00 | 100 | |
| 20260904002655 | 54 | 115 | 10.0 | 14.0 | 0.00 | 0.00 | 0.00 | 100 | |
| 20260904002455 | 54 | 120 | 7.0 | 11.0 | 0.00 | 0.00 | 0.00 | 100 | |
| 20260904002255 | 54 | 123 | 6.0 | 10.0 | 0.00 | 0.00 | 0.00 | 100 | |
| 20260904002055 | 54 | 127 | 7.0 | 10.0 | 0.00 | 0.00 | 0.00 | 100 | |
| 20260904001855 | 55 | 122 | 7.0 | 10.0 | 0.00 | 0.00 | 0.00 | 100 | |
| 20260904001655 | 55 | 121 | 7.0 | 10.0 | 0.00 | 0.00 | 0.00 | 100 | |
| 20260904001455 | 55 | 132 | 9.0 | 11.0 | 0.00 | 0.00 | 0.00 | 100 | |
| 20260904001255 | 55 | 136 | 7.0 | 10.0 | 0.00 | 0.00 | 0.00 | 100 | |
| 20260904001056 | 55 | 126 | 7.0 | 10.0 | 0.00 | 0.00 | 0.00 | 100 | |
| 20260904000856 | 55 | 119 | 8.0 | 12.0 | 0.00 | 0.00 | 0.00 | 100 | |
| 20260904000654 | 55 | 128 | 8.0 | 12.0 | 0.00 | 0.00 | 0.00 | 100 | |
| 20260904000455 | 55 | 116 | 8.0 | 11.0 | 0.00 | 0.00 | 0.00 | 100 | |
| 20260904000255 | 55 | 93 | 7.0 | 11.0 | 0.00 | 0.00 | 0.00 | 100 | |
| 20260904000054 | 54 | 126 | 9.0 | 12.0 | 0.00 | 0.00 | 0.00 | 100 | |
| 20260903235854 | 55 | 113 | 9.0 | 12.0 | 0.00 | 0.00 | 0.00 | 100 | |
| 20260903235654 | 55 | 97 | 8.0 | 12.0 | 0.00 | 0.00 | 0.00 | 100 | |
| 20260903235454 | 55 | 130 | 9.0 | 12.0 | 0.00 | 0.00 | 0.00 | 100 | |
| 20260903235254 | 55 | 143 | 9.0 | 13.0 | 0.00 | 0.00 | 0.00 | 100 | |
| 20260903235054 | 55 | 144 | 8.0 | 11.0 | 0.00 | 0.00 | 0.00 | 100 | |
| 20260903234854 | 55 | 132 | 8.0 | 11.0 | 0.00 | 0.00 | 0.00 | 100 | |
| 20260903234652 | 55 | 112 | 8.0 | 11.0 | 0.00 | 0.00 | 0.00 | 100 | |
| 20260903234451 | 55 | 103 | 8.0 | 12.0 | 0.00 | 0.00 | 0.00 | 100 | |
| 20260903234251 | 55 | 102 | 9.0 | 12.0 | 0.00 | 0.00 | 0.00 | 100 | |
| 20260903234051 | 55 | 133 | 8.0 | 12.0 | 0.00 | 0.00 | 0.00 | 100 | |
| 20260903233851 | 55 | 158 | 8.0 | 11.0 | 0.00 | 0.00 | 0.00 | 100 | |
| 20260903233651 | 55 | 139 | 9.0 | 13.0 | 0.00 | 0.00 | 0.00 | 100 | |
| 20260903233451 | 55 | 137 | 8.0 | 13.0 | 0.00 | 0.00 | 0.00 | 100 | |
| 20260903233251 | 55 | 145 | 9.0 | 14.0 | 0.00 | 0.00 | 0.00 | 100 | |
| 20260903233052 | 56 | 136 | 8.0 | 11.0 | 0.00 | 0.00 | 0.00 | 100 | |
| 20260903232852 | 56 | 144 | 9.0 | 17.0 | 0.00 | 0.00 | 0.00 | 100 | |
| 20260903232650 | 56 | 132 | 8.0 | 17.0 | 0.00 | 0.00 | 0.00 | 100 | |
| 20260903232449 | 56 | 159 | 8.0 | 14.0 | 0.00 | 0.00 | 0.00 | 100 | |
| 20260903232249 | 56 | 122 | 8.0 | 11.0 | 0.00 | 0.00 | 0.00 | 100 | |
| 20260903232049 | 56 | 134 | 9.0 | 11.0 | 0.00 | 0.00 | 0.00 | 100 | |
| 20260903231849 | 56 | 136 | 8.0 | 11.0 | 0.00 | 0.00 | 0.00 | 100 | |
| 20260903231649 | 56 | 138 | 9.0 | 12.0 | 0.00 | 0.00 | 0.00 | 100 | |
| 20260903231449 | 56 | 149 | 10.0 | 18.0 | 0.00 | 0.00 | 0.00 | 100 | |
| 20260903231249 | 56 | 135 | 8.0 | 12.0 | 0.00 | 0.00 | 0.00 | 100 | |
| 20260903231049 | 57 | 143 | 8.0 | 10.0 | 0.00 | 0.00 | 0.00 | 100 | |
| 20260903230849 | 57 | 186 | 9.0 | 16.0 | 0.00 | 0.00 | 0.00 | 100 | |
| 20260903230647 | 57 | 139 | 10.0 | 18.0 | 0.00 | 0.00 | 0.00 | 100 | |
| 20260903230447 | 57 | 178 | 12.0 | 18.0 | 0.00 | 0.00 | 0.00 | 100 | |
| 20260903230247 | 57 | 170 | 11.0 | 16.0 | 0.00 | 0.00 | 0.00 | 100 | |
| 20260903230046 | 57 | 164 | 9.0 | 14.0 | 0.00 | 0.00 | 0.00 | 100 | |
| 20260903225847 | 56 | 195 | 8.0 | 13.0 | 0.00 | 0.00 | 0.00 | 100 | |
| 20260903225647 | 56 | 178 | 9.0 | 13.0 | 0.00 | 0.00 | 0.00 | 100 | |
| 20260903225447 | 57 | 134 | 9.0 | 13.0 | 0.00 | 0.00 | 0.00 | 100 | |
| 20260903225247 | 57 | 172 | 9.0 | 13.0 | 0.00 | 0.00 | 0.00 | 100 | |
| 20260903225047 | 57 | 149 | 9.0 | 13.0 | 0.00 | 0.00 | 0.00 | 100 | |
| 20260903224847 | 57 | 160 | 9.0 | 13.0 | 0.00 | 0.00 | 0.00 | 100 | |
| 20260903224645 | 56 | 143 | 10.0 | 15.0 | 0.00 | 0.00 | 0.00 | 100 | |
| 20260903224445 | 56 | 148 | 10.0 | 14.0 | 0.00 | 0.00 | 0.00 | 100 | |
| 20260903224244 | 56 | 169 | 10.0 | 15.0 | 0.00 | 0.00 | 0.00 | 100 | |
| 20260903224044 | 56 | 196 | 10.0 | 15.0 | 0.00 | 0.00 | 0.00 | 100 | |
| 20260903223844 | 56 | 168 | 8.0 | 12.0 | 0.00 | 0.00 | 0.00 | 100 | |
| 20260903223644 | 56 | 169 | 9.0 | 14.0 | 0.00 | 0.00 | 0.00 | 100 | |
| 20260903223444 | 56 | 139 | 9.0 | 14.0 | 0.00 | 0.00 | 0.00 | 100 | |
| 20260903223244 | 56 | 149 | 8.0 | 13.0 | 0.00 | 0.00 | 0.00 | 100 | |
| 20260903223044 | 56 | 103 | 9.0 | 11.0 | 0.00 | 0.00 | 0.00 | 100 | |
| 20260903222844 | 56 | 100 | 8.0 | 11.0 | 0.00 | 0.00 | 0.00 | 100 | |
| 20260903222642 | 56 | 106 | 7.0 | 10.0 | 0.00 | 0.00 | 0.00 | 100 | |
| 20260903222442 | 56 | 101 | 8.0 | 11.0 | 0.00 | 0.00 | 0.00 | 100 | |
| 20260903222243 | 56 | 95 | 9.0 | 13.0 | 0.00 | 0.00 | 0.00 | 100 | |
| 20260903222042 | 56 | 132 | 9.0 | 12.0 | 0.00 | 0.00 | 0.00 | 100 | |
| 20260903221842 | 56 | 143 | 9.0 | 12.0 | 0.00 | 0.00 | 0.00 | 100 | |
| 20260903221633 | 56 | 151 | 8.0 | 10.0 | 0.00 | 0.00 | 0.00 | 100 | |
| 20260903221433 | 56 | 113 | 8.0 | 11.0 | 0.00 | 0.00 | 0.00 | 100 | |
| 20260903221233 | 57 | 118 | 8.0 | 12.0 | 0.00 | 0.00 | 0.00 | 100 | |
| 20260903221033 | 57 | 124 | 8.0 | 12.0 | 0.00 | 0.00 | 0.00 | 100 | |
| 20260903220833 | 57 | 100 | 8.0 | 13.0 | 0.00 | 0.00 | 0.00 | 100 | |
| 20260903220631 | 57 | 139 | 9.0 | 13.0 | 0.00 | 0.00 | 0.00 | 100 | |
| 20260903220431 | 57 | 160 | 10.0 | 14.0 | 0.00 | 0.00 | 0.00 | 100 | |
| 20260903220231 | 57 | 152 | 10.0 | 18.0 | 0.00 | 0.00 | 0.00 | 100 | |
| 20260903220031 | 57 | 137 | 10.0 | 18.0 | 0.00 | 0.00 | 0.00 | 100 | |
| 20260903215831 | 57 | 118 | 9.0 | 13.0 | 0.00 | 0.00 | 0.00 | 100 | |
| 20260903215631 | 57 | 84 | 8.0 | 12.0 | 0.00 | 0.00 | 0.00 | 100 | |
| 20260903215431 | 57 | 108 | 9.0 | 13.0 | 0.00 | 0.00 | 0.00 | 100 | |
| 20260903215231 | 57 | 108 | 9.0 | 13.0 | 0.00 | 0.00 | 0.00 | 100 | |
| 20260903215031 | 56 | 146 | 9.0 | 14.0 | 0.00 | 0.00 | 0.00 | 100 | |
| 20260903214831 | 56 | 148 | 8.0 | 12.0 | 0.00 | 0.00 | 0.00 | 100 | |
| 20260903214629 | 56 | 138 | 9.0 | 17.0 | 0.00 | 0.00 | 0.00 | 100 | |
| 20260903214429 | 56 | 178 | 9.0 | 17.0 | 0.00 | 0.00 | 0.00 | 100 | |
| 20260903214229 | 56 | 169 | 8.0 | 12.0 | 0.00 | 0.00 | 0.00 | 100 | |
| 20260903214029 | 56 | 162 | 9.0 | 12.0 | 0.00 | 0.00 | 0.00 | 100 | |
| 20260903213829 | 56 | 161 | 9.0 | 12.0 | 0.00 | 0.00 | 0.00 | 100 | |
| 20260903213629 | 56 | 175 | 10.0 | 13.0 | 0.00 | 0.00 | 0.00 | 100 | |
| 20260903213429 | 56 | 142 | 9.0 | 13.0 | 0.00 | 0.00 | 0.00 | 100 | |
| 20260903213229 | 56 | 177 | 8.0 | 13.0 | 0.00 | 0.00 | 0.00 | 100 | |
| 20260903213029 | 56 | 190 | 9.0 | 13.0 | 0.00 | 0.00 | 0.00 | 100 | |
| 20260903212829 | 56 | 183 | 10.0 | 16.0 | 0.00 | 0.00 | 0.00 | 100 | |
| 20260903212627 | 56 | 189 | 10.0 | 16.0 | 0.00 | 0.00 | 0.00 | 100 | |
| 20260903212425 | 56 | 159 | 10.0 | 15.0 | 0.00 | 0.00 | 0.00 | 100 | |
| 20260903212225 | 56 | 192 | 11.0 | 15.0 | 0.00 | 0.00 | 0.00 | 100 | |
| 20260903212025 | 56 | 188 | 10.0 | 17.0 | 0.00 | 0.00 | 0.00 | 100 | |
| 20260903211825 | 56 | 166 | 10.0 | 14.0 | 0.00 | 0.00 | 0.00 | 100 | |
| 20260903211626 | 56 | 175 | 11.0 | 16.0 | 0.00 | 0.00 | 0.00 | 100 | |
| 20260903211426 | 56 | 238 | 10.0 | 17.0 | 0.00 | 0.00 | 0.00 | 100 | |
| 20260903211226 | 56 | 199 | 11.0 | 19.0 | 0.00 | 0.00 | 0.00 | 100 | |
| 20260903211026 | 56 | 201 | 12.0 | 15.0 | 0.00 | 0.00 | 0.00 | 100 | |
| 20260903210826 | 56 | 174 | 12.0 | 16.0 | 0.00 | 0.00 | 0.00 | 100 | |
| 20260903210624 | 56 | 180 | 11.0 | 16.0 | 0.00 | 0.00 | 0.00 | 100 | |
| 20260903210424 | 56 | 124 | 10.0 | 15.0 | 0.00 | 0.00 | 0.00 | 100 | |
| 20260903210224 | 56 | 115 | 9.0 | 12.0 | 0.00 | 0.00 | 0.00 | 100 | |
| 20260903210024 | 56 | 168 | 10.0 | 14.0 | 0.00 | 0.00 | 0.00 | 100 | |
| 20260903205824 | 56 | 185 | 9.0 | 13.0 | 0.00 | 0.00 | 0.00 | 100 | |
| 20260903205624 | 56 | 139 | 9.0 | 15.0 | 0.00 | 0.00 | 0.00 | 100 | |
| 20260903205424 | 56 | 111 | 9.0 | 12.0 | 0.00 | 0.00 | 0.00 | 100 | |
| 20260903205224 | 56 | 162 | 9.0 | 15.0 | 0.00 | 0.00 | 0.00 | 100 | |
| 20260903205024 | 56 | 200 | 9.0 | 14.0 | 0.00 | 0.00 | 0.00 | 100 | |
| 20260903204824 | 56 | 143 | 10.0 | 14.0 | 0.00 | 0.00 | 0.00 | 100 | |
| 20260903204622 | 56 | 109 | 10.0 | 14.0 | 0.00 | 0.00 | 0.00 | 100 | |
| 20260903204421 | 56 | 145 | 10.0 | 12.0 | 0.00 | 0.00 | 0.00 | 100 | |
| 20260903204221 | 56 | 161 | 9.0 | 12.0 | 0.00 | 0.00 | 0.00 | 100 | |
| 20260903204021 | 56 | 187 | 10.0 | 13.0 | 0.00 | 0.00 | 0.00 | 100 | |
| 20260903203821 | 56 | 200 | 11.0 | 14.0 | 0.00 | 0.00 | 0.00 | 100 | |
| 20260903203621 | 56 | 181 | 10.0 | 14.0 | 0.00 | 0.00 | 0.00 | 100 | |
| 20260903203422 | 56 | 159 | 10.0 | 16.0 | 0.00 | 0.00 | 0.00 | 100 | |
| 20260903203222 | 56 | 156 | 9.0 | 13.0 | 0.00 | 0.00 | 0.00 | 100 | |
| 20260903203022 | 56 | 118 | 8.0 | 13.0 | 0.00 | 0.00 | 0.00 | 100 | |
| 20260903202822 | 56 | 106 | 9.0 | 14.0 | 0.00 | 0.00 | 0.00 | 100 | |
| 20260903202620 | 56 | 113 | 10.0 | 14.0 | 0.00 | 0.00 | 0.00 | 100 | |
| 20260903202419 | 56 | 166 | 10.0 | 16.0 | 0.00 | 0.00 | 0.00 | 100 | |
| 20260903202219 | 56 | 145 | 11.0 | 16.0 | 0.00 | 0.00 | 0.00 | 100 | |
| 20260903202019 | 56 | 117 | 10.0 | 13.0 | 0.00 | 0.00 | 0.00 | 100 | |
| 20260903201819 | 56 | 130 | 9.0 | 13.0 | 0.00 | 0.00 | 0.00 | 100 | |
| 20260903201619 | 56 | 145 | 9.0 | 12.0 | 0.00 | 0.00 | 0.00 | 100 | |
| 20260903201419 | 56 | 169 | 10.0 | 14.0 | 0.00 | 0.00 | 0.00 | 100 | |
| 20260903201219 | 56 | 145 | 9.0 | 14.0 | 0.00 | 0.00 | 0.00 | 100 | |
| 20260903201019 | 56 | 133 | 10.0 | 13.0 | 0.00 | 0.00 | 0.00 | 100 | |
| 20260903200819 | 56 | 156 | 10.0 | 14.0 | 0.00 | 0.00 | 0.00 | 100 | |
| 20260903200617 | 56 | 139 | 9.0 | 12.0 | 0.00 | 0.00 | 0.00 | 100 | |
| 20260903200417 | 56 | 120 | 10.0 | 13.0 | 0.00 | 0.00 | 0.00 | 100 | |
| 20260903200217 | 56 | 173 | 9.0 | 13.0 | 0.00 | 0.00 | 0.00 | 100 | |
| 20260903200017 | 56 | 120 | 9.0 | 13.0 | 0.00 | 0.00 | 0.00 | 100 | |
| 20260903195817 | 56 | 77 | 9.0 | 12.0 | 0.00 | 0.00 | 0.00 | 100 | |
| 20260903195617 | 56 | 41 | 8.0 | 11.0 | 0.00 | 0.00 | 0.00 | 100 | |
| 20260903195417 | 56 | 196 | 10.0 | 13.0 | 0.00 | 0.00 | 0.00 | 100 | |
| 20260903195217 | 56 | 203 | 10.0 | 13.0 | 0.00 | 0.00 | 0.00 | 100 | |
| 20260903195017 | 56 | 158 | 9.0 | 13.0 | 0.00 | 0.00 | 0.00 | 100 | |
| 20260903194817 | 56 | 148 | 9.0 | 13.0 | 0.00 | 0.00 | 0.00 | 100 | |
| 20260903194615 | 56 | 124 | 9.0 | 12.0 | 0.00 | 0.00 | 0.00 | 100 | |
| 20260903194415 | 56 | 104 | 10.0 | 14.0 | 0.00 | 0.00 | 0.00 | 100 | |
| 20260903194215 | 56 | 99 | 10.0 | 14.0 | 0.00 | 0.00 | 0.00 | 100 | |
| 20260903194008 | 56 | 118 | 8.0 | 11.0 | 0.00 | 0.00 | 0.00 | 100 | |
| 20260903193808 | 56 | 133 | 8.0 | 13.0 | 0.00 | 0.00 | 0.00 | 100 | |
| 20260903193608 | 56 | 120 | 9.0 | 13.0 | 0.00 | 0.00 | 0.00 | 100 | |
| 20260903193408 | 56 | 167 | 9.0 | 12.0 | 0.00 | 0.00 | 0.00 | 100 | |
| 20260903193208 | 56 | 155 | 8.0 | 11.0 | 0.00 | 0.00 | 0.00 | 100 | |
| 20260903193008 | 56 | 162 | 8.0 | 12.0 | 0.00 | 0.00 | 0.00 | 100 | |
| 20260903192808 | 56 | 123 | 8.0 | 12.0 | 0.00 | 0.00 | 0.00 | 100 | |
| 20260903192606 | 56 | 141 | 8.0 | 12.0 | 0.00 | 0.00 | 0.00 | 100 | |
| 20260903192406 | 56 | 122 | 8.0 | 12.0 | 0.00 | 0.00 | 0.00 | 100 | |
| 20260903192206 | 56 | 161 | 8.0 | 11.0 | 0.00 | 0.00 | 0.00 | 100 | |
| 20260903192005 | 56 | 162 | 8.0 | 11.0 | 0.00 | 0.00 | 0.00 | 100 | |
| 20260903191805 | 56 | 159 | 8.0 | 11.0 | 0.00 | 0.00 | 0.00 | 100 | |
| 20260903191605 | 56 | 180 | 8.0 | 12.0 | 0.00 | 0.00 | 0.00 | 100 | |
| 20260903191405 | 56 | 198 | 9.0 | 12.0 | 0.00 | 0.00 | 0.00 | 100 | |
| 20260903191205 | 56 | 165 | 9.0 | 13.0 | 0.00 | 0.00 | 0.00 | 100 | |
| 20260903191005 | 56 | 140 | 10.0 | 13.0 | 0.00 | 0.00 | 0.00 | 100 | |
| 20260903190806 | 56 | 156 | 10.0 | 14.0 | 0.00 | 0.00 | 0.00 | 100 | |
| 20260903190604 | 56 | 161 | 9.0 | 14.0 | 0.00 | 0.00 | 0.00 | 100 | |
| 20260903190404 | 56 | 138 | 8.0 | 10.0 | 0.00 | 0.00 | 0.00 | 100 | |
| 20260903190204 | 56 | 142 | 9.0 | 14.0 | 0.00 | 0.00 | 0.00 | 100 | |
| 20260903190004 | 56 | 147 | 9.0 | 14.0 | 0.00 | 0.00 | 0.00 | 100 | |
| 20260903185803 | 56 | 162 | 9.0 | 13.0 | 0.00 | 0.00 | 0.00 | 100 | |
| 20260903185603 | 56 | 106 | 8.0 | 13.0 | 0.00 | 0.00 | 0.00 | 100 | |
| 20260903185403 | 56 | 123 | 7.0 | 11.0 | 0.00 | 0.00 | 0.00 | 100 | |
| 20260903185203 | 56 | 126 | 7.0 | 9.0 | 0.00 | 0.00 | 0.00 | 100 | |
| 20260903185003 | 56 | 149 | 9.0 | 12.0 | 0.00 | 0.00 | 0.00 | 100 | |
| 20260903184803 | 56 | 146 | 8.0 | 12.0 | 0.00 | 0.00 | 0.00 | 100 | |
| 20260903184601 | 56 | 166 | 8.0 | 11.0 | 0.00 | 0.00 | 0.00 | 100 | |
| 20260903184401 | 56 | 174 | 8.0 | 11.0 | 0.00 | 0.00 | 0.00 | 100 | |
| 20260903184201 | 55 | 180 | 8.0 | 11.0 | 0.00 | 0.00 | 0.00 | 100 | |
| 20260903184001 | 56 | 78 | 8.0 | 11.0 | 0.00 | 0.00 | 0.00 | 100 | |
| 20260903183801 | 56 | 139 | 7.0 | 11.0 | 0.00 | 0.00 | 0.00 | 100 | |
| 20260903183601 | 55 | 128 | 6.0 | 9.0 | 0.00 | 0.00 | 0.00 | 100 | |
| 20260903183401 | 56 | 104 | 7.0 | 11.0 | 0.00 | 0.00 | 0.00 | 100 | |
| 20260903183201 | 56 | 104 | 8.0 | 11.0 | 0.00 | 0.00 | 0.00 | 100 | |
| 20260903183001 | 56 | 94 | 7.0 | 10.0 | 0.00 | 0.00 | 0.00 | 100 | |
| 20260903182801 | 56 | 132 | 8.0 | 10.0 | 0.00 | 0.00 | 0.00 | 100 | |
| 20260903182559 | 56 | 99 | 7.0 | 10.0 | 0.00 | 0.00 | 0.00 | 100 | |
| 20260903182359 | 56 | 109 | 7.0 | 10.0 | 0.00 | 0.00 | 0.00 | 100 | |
| 20260903182159 | 56 | 147 | 7.0 | 12.0 | 0.00 | 0.00 | 0.00 | 100 | |
| 20260903181959 | 56 | 151 | 8.0 | 11.0 | 0.00 | 0.00 | 0.00 | 100 | |
| 20260903181759 | 56 | 149 | 7.0 | 10.0 | 0.00 | 0.00 | 0.00 | 100 | |
| 20260903181558 | 56 | 156 | 7.0 | 11.0 | 0.00 | 0.00 | 0.00 | 100 | |
| 20260903181358 | 56 | 121 | 8.0 | 11.0 | 0.00 | 0.00 | 0.00 | 100 | |
| 20260903181158 | 55 | 96 | 7.0 | 9.0 | 0.00 | 0.00 | 0.00 | 100 | |
| 20260903180958 | 55 | 70 | 6.0 | 9.0 | 0.00 | 0.00 | 0.00 | 100 | |
| 20260903180758 | 55 | 111 | 6.0 | 10.0 | 0.00 | 0.00 | 0.00 | 100 | |
| 20260903180556 | 55 | 138 | 7.0 | 9.0 | 0.00 | 0.00 | 0.00 | 100 | |
| 20260903180356 | 55 | 105 | 6.0 | 8.0 | 0.00 | 0.00 | 0.00 | 100 | |
| 20260903180156 | 55 | 123 | 5.0 | 8.0 | 0.00 | 0.00 | 0.00 | 100 | |
| 20260903175956 | 56 | 122 | 6.0 | 8.0 | 0.00 | 0.00 | 0.00 | 100 | |
| 20260903175756 | 56 | 94 | 6.0 | 8.0 | 0.00 | 0.00 | 0.00 | 100 | |
| 20260903175600 | 56 | 105 | 6.0 | 8.0 | 0.00 | 0.00 | 0.00 | 100 | |
| 20260903175356 | 56 | 86 | 6.0 | 9.0 | 0.00 | 0.00 | 0.00 | 100 | |
| 20260903175156 | 56 | 105 | 7.0 | 9.0 | 0.00 | 0.00 | 0.00 | 100 | |
| 20260903174956 | 56 | 135 | 7.0 | 9.0 | 0.00 | 0.00 | 0.00 | 100 | |
| 20260903174756 | 56 | 125 | 8.0 | 11.0 | 0.00 | 0.00 | 0.00 | 100 | |
| 20260903174554 | 56 | 137 | 8.0 | 11.0 | 0.00 | 0.00 | 0.00 | 100 | |
| 20260903174354 | 56 | 120 | 8.0 | 10.0 | 0.00 | 0.00 | 0.00 | 100 | |
| 20260903174154 | 56 | 135 | 7.0 | 10.0 | 0.00 | 0.00 | 0.00 | 100 | |
| 20260903173954 | 56 | 109 | 6.0 | 9.0 | 0.00 | 0.00 | 0.00 | 100 | |
| 20260903173754 | 56 | 123 | 7.0 | 9.0 | 0.00 | 0.00 | 0.00 | 100 | |
| 20260903173554 | 56 | 147 | 6.0 | 9.0 | 0.00 | 0.00 | 0.00 | 100 | |
| 20260903173354 | 56 | 117 | 6.0 | 9.0 | 0.00 | 0.00 | 0.00 | 100 | |
| 20260903173154 | 56 | 108 | 6.0 | 9.0 | 0.00 | 0.00 | 0.00 | 100 | |
| 20260903172954 | 56 | 156 | 8.0 | 11.0 | 0.00 | 0.00 | 0.00 | 100 |